sensor_id;sensor_type;location;lat;lon;timestamp;pressure;altitude;pressure_sealevel;temperature
69704;BMP280;56967;43.538;-5.646;2023-04-24T00:01:13;100083.47;;;17.32
69704;BMP280;56967;43.538;-5.646;2023-04-24T00:03:38;100041.19;;;17.41
69704;BMP280;56967;43.538;-5.646;2023-04-24T00:06:05;100070.13;;;17.43
69704;BMP280;56967;43.538;-5.646;2023-04-24T00:08:34;100070.41;;;17.41
69704;BMP280;56967;43.538;-5.646;2023-04-24T00:10:59;100057.41;;;17.34
69704;BMP280;56967;43.538;-5.646;2023-04-24T00:13:25;100091.53;;;17.56
69704;BMP280;56967;43.538;-5.646;2023-04-24T00:15:51;100142.59;;;17.58
69704;BMP280;56967;43.538;-5.646;2023-04-24T00:18:16;100182.72;;;17.52
69704;BMP280;56967;43.538;-5.646;2023-04-24T00:20:42;100205.03;;;17.56
69704;BMP280;56967;43.538;-5.646;2023-04-24T00:23:09;100207.41;;;17.62
69704;BMP280;56967;43.538;-5.646;2023-04-24T00:25:34;100246.47;;;17.62
69704;BMP280;56967;43.538;-5.646;2023-04-24T00:28:00;100258.97;;;17.56
69704;BMP280;56967;43.538;-5.646;2023-04-24T00:30:25;100273.34;;;17.60
69704;BMP280;56967;43.538;-5.646;2023-04-24T00:32:51;100304.41;;;17.65
69704;BMP280;56967;43.538;-5.646;2023-04-24T00:35:16;100328.03;;;17.66
69704;BMP280;56967;43.538;-5.646;2023-04-24T00:37:42;100368.16;;;17.75
69704;BMP280;56967;43.538;-5.646;2023-04-24T00:40:08;100424.28;;;17.68
69704;BMP280;56967;43.538;-5.646;2023-04-24T00:42:34;100416.31;;;17.78
69704;BMP280;56967;43.538;-5.646;2023-04-24T00:45:00;100393.69;;;17.66
69704;BMP280;56967;43.538;-5.646;2023-04-24T00:47:26;100411.00;;;17.63
69704;BMP280;56967;43.538;-5.646;2023-04-24T00:49:52;100401.13;;;17.79
69704;BMP280;56967;43.538;-5.646;2023-04-24T00:52:17;100419.47;;;17.75
69704;BMP280;56967;43.538;-5.646;2023-04-24T00:54:44;100409.41;;;17.72
69704;BMP280;56967;43.538;-5.646;2023-04-24T00:57:10;100397.72;;;17.63
69704;BMP280;56967;43.538;-5.646;2023-04-24T00:59:36;100400.38;;;17.73
69704;BMP280;56967;43.538;-5.646;2023-04-24T01:02:02;100404.38;;;17.46
69704;BMP280;56967;43.538;-5.646;2023-04-24T01:04:28;100371.94;;;17.59
69704;BMP280;56967;43.538;-5.646;2023-04-24T01:06:54;100395.31;;;17.72
69704;BMP280;56967;43.538;-5.646;2023-04-24T01:09:22;100406.75;;;17.67
69704;BMP280;56967;43.538;-5.646;2023-04-24T01:11:48;100407.78;;;17.66
69704;BMP280;56967;43.538;-5.646;2023-04-24T01:14:14;100412.34;;;17.56
69704;BMP280;56967;43.538;-5.646;2023-04-24T01:16:40;100412.88;;;17.63
69704;BMP280;56967;43.538;-5.646;2023-04-24T01:19:07;100439.16;;;17.69
69704;BMP280;56967;43.538;-5.646;2023-04-24T01:21:36;100459.91;;;17.67
69704;BMP280;56967;43.538;-5.646;2023-04-24T01:24:06;100473.44;;;17.76
69704;BMP280;56967;43.538;-5.646;2023-04-24T01:26:32;100463.09;;;17.74
69704;BMP280;56967;43.538;-5.646;2023-04-24T01:28:57;100494.47;;;17.82
69704;BMP280;56967;43.538;-5.646;2023-04-24T01:31:23;100497.94;;;17.73
69704;BMP280;56967;43.538;-5.646;2023-04-24T01:33:49;100497.91;;;17.88
69704;BMP280;56967;43.538;-5.646;2023-04-24T01:36:16;100513.06;;;17.92
69704;BMP280;56967;43.538;-5.646;2023-04-24T01:38:42;100544.44;;;17.95
69704;BMP280;56967;43.538;-5.646;2023-04-24T01:41:07;100553.22;;;18.01
69704;BMP280;56967;43.538;-5.646;2023-04-24T01:43:33;100569.19;;;18.01
69704;BMP280;56967;43.538;-5.646;2023-04-24T01:45:59;100565.94;;;17.89
69704;BMP280;56967;43.538;-5.646;2023-04-24T01:48:24;100543.88;;;17.93
69704;BMP280;56967;43.538;-5.646;2023-04-24T01:50:50;100536.22;;;17.92
69704;BMP280;56967;43.538;-5.646;2023-04-24T01:53:16;100523.44;;;17.74
69704;BMP280;56967;43.538;-5.646;2023-04-24T01:55:42;100493.09;;;17.70
69704;BMP280;56967;43.538;-5.646;2023-04-24T01:58:07;100476.09;;;17.66
69704;BMP280;56967;43.538;-5.646;2023-04-24T02:00:33;100417.94;;;17.54
69704;BMP280;56967;43.538;-5.646;2023-04-24T02:02:59;100405.97;;;17.42
69704;BMP280;56967;43.538;-5.646;2023-04-24T02:05:27;100387.38;;;17.37
69704;BMP280;56967;43.538;-5.646;2023-04-24T02:07:52;100371.69;;;17.30
69704;BMP280;56967;43.538;-5.646;2023-04-24T02:10:18;100339.56;;;17.26
69704;BMP280;56967;43.538;-5.646;2023-04-24T02:12:43;100307.69;;;17.21
69704;BMP280;56967;43.538;-5.646;2023-04-24T02:15:09;100292.00;;;17.25
69704;BMP280;56967;43.538;-5.646;2023-04-24T02:17:35;100253.28;;;17.04
69704;BMP280;56967;43.538;-5.646;2023-04-24T02:20:01;100236.78;;;17.12
69704;BMP280;56967;43.538;-5.646;2023-04-24T02:22:27;100249.03;;;17.08
69704;BMP280;56967;43.538;-5.646;2023-04-24T02:24:52;100242.34;;;17.20
69704;BMP280;56967;43.538;-5.646;2023-04-24T02:27:18;100273.16;;;17.31
69704;BMP280;56967;43.538;-5.646;2023-04-24T02:29:43;100286.66;;;17.40
69704;BMP280;56967;43.538;-5.646;2023-04-24T02:32:09;100293.06;;;17.39
69704;BMP280;56967;43.538;-5.646;2023-04-24T02:34:40;100300.22;;;17.44
69704;BMP280;56967;43.538;-5.646;2023-04-24T02:37:06;100306.63;;;17.27
69704;BMP280;56967;43.538;-5.646;2023-04-24T02:39:31;100269.44;;;17.27
69704;BMP280;56967;43.538;-5.646;2023-04-24T02:41:57;100256.75;;;17.09
69704;BMP280;56967;43.538;-5.646;2023-04-24T02:44:22;100246.94;;;17.05
69704;BMP280;56967;43.538;-5.646;2023-04-24T02:46:48;100252.25;;;17.05
69704;BMP280;56967;43.538;-5.646;2023-04-24T02:49:13;100229.66;;;17.02
69704;BMP280;56967;43.538;-5.646;2023-04-24T02:51:39;100212.09;;;17.11
69704;BMP280;56967;43.538;-5.646;2023-04-24T02:54:07;100211.25;;;17.26
69704;BMP280;56967;43.538;-5.646;2023-04-24T02:56:34;100216.53;;;17.36
69704;BMP280;56967;43.538;-5.646;2023-04-24T02:58:59;100242.84;;;17.38
69704;BMP280;56967;43.538;-5.646;2023-04-24T03:01:25;100273.88;;;17.47
69704;BMP280;56967;43.538;-5.646;2023-04-24T03:03:51;100291.69;;;17.52
69704;BMP280;56967;43.538;-5.646;2023-04-24T03:06:16;100268.06;;;17.45
69704;BMP280;56967;43.538;-5.646;2023-04-24T03:08:42;100237.19;;;17.59
69704;BMP280;56967;43.538;-5.646;2023-04-24T03:11:07;100228.22;;;17.40
69704;BMP280;56967;43.538;-5.646;2023-04-24T03:13:33;100188.09;;;17.42
69704;BMP280;56967;43.538;-5.646;2023-04-24T03:15:58;100181.94;;;17.51
69704;BMP280;56967;43.538;-5.646;2023-04-24T03:18:24;100211.66;;;17.63
69704;BMP280;56967;43.538;-5.646;2023-04-24T03:20:50;100256.84;;;17.63
69704;BMP280;56967;43.538;-5.646;2023-04-24T03:23:16;100253.16;;;17.54
69704;BMP280;56967;43.538;-5.646;2023-04-24T03:25:41;100244.16;;;17.40
69704;BMP280;56967;43.538;-5.646;2023-04-24T03:28:08;100247.28;;;17.57
69704;BMP280;56967;43.538;-5.646;2023-04-24T03:30:33;100225.81;;;17.49
69704;BMP280;56967;43.538;-5.646;2023-04-24T03:32:59;100212.16;;;17.65
69704;BMP280;56967;43.538;-5.646;2023-04-24T03:35:25;100210.88;;;17.58
69704;BMP280;56967;43.538;-5.646;2023-04-24T03:37:51;100191.56;;;17.42
69704;BMP280;56967;43.538;-5.646;2023-04-24T03:40:16;100165.19;;;17.56
69704;BMP280;56967;43.538;-5.646;2023-04-24T03:42:42;100168.44;;;17.43
69704;BMP280;56967;43.538;-5.646;2023-04-24T03:45:08;100095.38;;;17.40
69704;BMP280;56967;43.538;-5.646;2023-04-24T03:47:33;100121.13;;;17.40
69704;BMP280;56967;43.538;-5.646;2023-04-24T03:49:59;100122.03;;;17.20
69704;BMP280;56967;43.538;-5.646;2023-04-24T03:52:25;100109.78;;;17.29
69704;BMP280;56967;43.538;-5.646;2023-04-24T03:54:50;100102.06;;;17.38
69704;BMP280;56967;43.538;-5.646;2023-04-24T03:57:16;100116.38;;;17.37
69704;BMP280;56967;43.538;-5.646;2023-04-24T03:59:41;100128.06;;;17.41
69704;BMP280;56967;43.538;-5.646;2023-04-24T04:02:07;100147.16;;;17.43
69704;BMP280;56967;43.538;-5.646;2023-04-24T04:04:32;100154.38;;;17.42
69704;BMP280;56967;43.538;-5.646;2023-04-24T04:06:58;100176.72;;;17.31
69704;BMP280;56967;43.538;-5.646;2023-04-24T04:09:26;100139.09;;;17.09
69704;BMP280;56967;43.538;-5.646;2023-04-24T04:11:52;100085.66;;;17.15
69704;BMP280;56967;43.538;-5.646;2023-04-24T04:14:18;100091.75;;;17.21
69704;BMP280;56967;43.538;-5.646;2023-04-24T04:16:43;100104.31;;;17.05
69704;BMP280;56967;43.538;-5.646;2023-04-24T04:19:09;100097.31;;;17.24
69704;BMP280;56967;43.538;-5.646;2023-04-24T04:21:34;100138.19;;;17.33
69704;BMP280;56967;43.538;-5.646;2023-04-24T04:24:00;100140.38;;;17.11
69704;BMP280;56967;43.538;-5.646;2023-04-24T04:26:25;100092.09;;;17.09
69704;BMP280;56967;43.538;-5.646;2023-04-24T04:28:52;100070.53;;;17.11
69704;BMP280;56967;43.538;-5.646;2023-04-24T04:31:19;100095.25;;;17.11
69704;BMP280;56967;43.538;-5.646;2023-04-24T04:33:45;100089.13;;;17.16
69704;BMP280;56967;43.538;-5.646;2023-04-24T04:36:10;100039.59;;;16.91
69704;BMP280;56967;43.538;-5.646;2023-04-24T04:38:37;100056.78;;;17.09
69704;BMP280;56967;43.538;-5.646;2023-04-24T04:41:03;100116.16;;;17.33
69704;BMP280;56967;43.538;-5.646;2023-04-24T04:43:28;100155.69;;;17.34
69704;BMP280;56967;43.538;-5.646;2023-04-24T04:45:57;100153.16;;;17.14
69704;BMP280;56967;43.538;-5.646;2023-04-24T04:48:22;100141.16;;;17.27
69704;BMP280;56967;43.538;-5.646;2023-04-24T04:50:48;100139.81;;;17.24
69704;BMP280;56967;43.538;-5.646;2023-04-24T04:53:13;100122.59;;;17.17
69704;BMP280;56967;43.538;-5.646;2023-04-24T04:55:39;100096.34;;;17.10
69704;BMP280;56967;43.538;-5.646;2023-04-24T04:58:04;100067.63;;;17.17
69704;BMP280;56967;43.538;-5.646;2023-04-24T05:00:31;100072.13;;;17.17
69704;BMP280;56967;43.538;-5.646;2023-04-24T05:03:01;100069.91;;;17.34
69704;BMP280;56967;43.538;-5.646;2023-04-24T05:05:26;100078.66;;;17.34
69704;BMP280;56967;43.538;-5.646;2023-04-24T05:07:52;100096.47;;;17.39
69704;BMP280;56967;43.538;-5.646;2023-04-24T05:10:17;100111.31;;;17.40
69704;BMP280;56967;43.538;-5.646;2023-04-24T05:12:43;100120.56;;;17.48
69704;BMP280;56967;43.538;-5.646;2023-04-24T05:15:09;100135.44;;;17.54
69704;BMP280;56967;43.538;-5.646;2023-04-24T05:17:35;100114.75;;;17.41
69704;BMP280;56967;43.538;-5.646;2023-04-24T05:20:01;100115.63;;;17.31
69704;BMP280;56967;43.538;-5.646;2023-04-24T05:22:28;100109.25;;;17.32
69704;BMP280;56967;43.538;-5.646;2023-04-24T05:24:54;100139.53;;;17.31
69704;BMP280;56967;43.538;-5.646;2023-04-24T05:27:20;100146.44;;;17.27
69704;BMP280;56967;43.538;-5.646;2023-04-24T05:29:45;100150.94;;;17.31
69704;BMP280;56967;43.538;-5.646;2023-04-24T05:32:11;100173.53;;;17.34
69704;BMP280;56967;43.538;-5.646;2023-04-24T05:34:36;100181.75;;;17.38
69704;BMP280;56967;43.538;-5.646;2023-04-24T05:37:02;100169.53;;;17.31
69704;BMP280;56967;43.538;-5.646;2023-04-24T05:39:28;100116.28;;;16.98
69704;BMP280;56967;43.538;-5.646;2023-04-24T05:41:54;99954.75;;;16.71
69704;BMP280;56967;43.538;-5.646;2023-04-24T05:44:23;99833.50;;;16.66
69704;BMP280;56967;43.538;-5.646;2023-04-24T05:46:48;99797.97;;;16.67
69704;BMP280;56967;43.538;-5.646;2023-04-24T05:49:14;99809.59;;;16.72
69704;BMP280;56967;43.538;-5.646;2023-04-24T05:51:40;99864.09;;;16.93
69704;BMP280;56967;43.538;-5.646;2023-04-24T05:54:06;99899.00;;;16.76
69704;BMP280;56967;43.538;-5.646;2023-04-24T05:56:32;99921.47;;;16.89
69704;BMP280;56967;43.538;-5.646;2023-04-24T05:58:57;99955.94;;;16.99
69704;BMP280;56967;43.538;-5.646;2023-04-24T06:01:23;99943.38;;;17.14
69704;BMP280;56967;43.538;-5.646;2023-04-24T06:03:50;99966.81;;;17.36
69704;BMP280;56967;43.538;-5.646;2023-04-24T06:06:15;100011.91;;;17.46
69704;BMP280;56967;43.538;-5.646;2023-04-24T06:08:41;100046.44;;;17.51
69704;BMP280;56967;43.538;-5.646;2023-04-24T06:11:09;100085.91;;;17.68
69704;BMP280;56967;43.538;-5.646;2023-04-24T06:13:34;100138.63;;;17.89
69704;BMP280;56967;43.538;-5.646;2023-04-24T06:16:00;100201.34;;;18.00
69704;BMP280;56967;43.538;-5.646;2023-04-24T06:18:26;100282.13;;;18.10
69704;BMP280;56967;43.538;-5.646;2023-04-24T06:20:51;100315.31;;;18.17
69704;BMP280;56967;43.538;-5.646;2023-04-24T06:23:17;100327.38;;;18.04
69704;BMP280;56967;43.538;-5.646;2023-04-24T06:25:42;100309.84;;;17.93
69704;BMP280;56967;43.538;-5.646;2023-04-24T06:28:08;100224.28;;;17.86
69704;BMP280;56967;43.538;-5.646;2023-04-24T06:30:33;100199.34;;;17.82
69704;BMP280;56967;43.538;-5.646;2023-04-24T06:32:59;100150.91;;;17.85
69704;BMP280;56967;43.538;-5.646;2023-04-24T06:35:25;100151.44;;;17.92
69704;BMP280;56967;43.538;-5.646;2023-04-24T06:37:50;100162.63;;;17.79
69704;BMP280;56967;43.538;-5.646;2023-04-24T06:40:16;100173.19;;;17.94
69704;BMP280;56967;43.538;-5.646;2023-04-24T06:42:43;100185.47;;;17.85
69704;BMP280;56967;43.538;-5.646;2023-04-24T06:45:09;100195.06;;;17.81
69704;BMP280;56967;43.538;-5.646;2023-04-24T06:47:35;100222.53;;;17.67
69704;BMP280;56967;43.538;-5.646;2023-04-24T06:50:01;100152.84;;;17.70
69704;BMP280;56967;43.538;-5.646;2023-04-24T06:52:27;100158.94;;;17.75
69704;BMP280;56967;43.538;-5.646;2023-04-24T06:54:52;100172.22;;;17.80
69704;BMP280;56967;43.538;-5.646;2023-04-24T06:57:18;100156.47;;;17.84
69704;BMP280;56967;43.538;-5.646;2023-04-24T06:59:44;100145.59;;;17.85
69704;BMP280;56967;43.538;-5.646;2023-04-24T07:02:10;100134.91;;;17.95
69704;BMP280;56967;43.538;-5.646;2023-04-24T07:04:35;100207.72;;;17.99
69704;BMP280;56967;43.538;-5.646;2023-04-24T07:07:02;100228.41;;;18.08
69704;BMP280;56967;43.538;-5.646;2023-04-24T07:09:27;100262.31;;;18.26
69704;BMP280;56967;43.538;-5.646;2023-04-24T07:11:53;100326.53;;;18.14
69704;BMP280;56967;43.538;-5.646;2023-04-24T07:14:19;100346.16;;;18.28
69704;BMP280;56967;43.538;-5.646;2023-04-24T07:16:46;100367.63;;;18.42
69704;BMP280;56967;43.538;-5.646;2023-04-24T07:19:12;100424.78;;;18.49
69704;BMP280;56967;43.538;-5.646;2023-04-24T07:21:38;100475.03;;;18.66
69704;BMP280;56967;43.538;-5.646;2023-04-24T07:24:03;100536.19;;;18.81
69704;BMP280;56967;43.538;-5.646;2023-04-24T07:26:29;100556.66;;;18.91
69704;BMP280;56967;43.538;-5.646;2023-04-24T07:28:55;100584.84;;;19.02
69704;BMP280;56967;43.538;-5.646;2023-04-24T07:31:21;100593.91;;;19.01
69704;BMP280;56967;43.538;-5.646;2023-04-24T07:33:48;100649.22;;;19.24
69704;BMP280;56967;43.538;-5.646;2023-04-24T07:36:14;100680.16;;;19.20
69704;BMP280;56967;43.538;-5.646;2023-04-24T07:38:46;100667.31;;;19.27
69704;BMP280;56967;43.538;-5.646;2023-04-24T07:41:15;100705.88;;;19.44
69704;BMP280;56967;43.538;-5.646;2023-04-24T07:43:41;100699.06;;;19.23
69704;BMP280;56967;43.538;-5.646;2023-04-24T07:46:10;100642.44;;;18.93
69704;BMP280;56967;43.538;-5.646;2023-04-24T07:48:36;100586.75;;;18.91
69704;BMP280;56967;43.538;-5.646;2023-04-24T07:51:02;100619.91;;;19.24
69704;BMP280;56967;43.538;-5.646;2023-04-24T07:53:27;100575.25;;;19.01
69704;BMP280;56967;43.538;-5.646;2023-04-24T07:55:55;100662.97;;;19.46
69704;BMP280;56967;43.538;-5.646;2023-04-24T07:58:20;100647.59;;;19.28
69704;BMP280;56967;43.538;-5.646;2023-04-24T08:00:46;100629.88;;;18.98
69704;BMP280;56967;43.538;-5.646;2023-04-24T08:03:12;100723.47;;;19.56
69704;BMP280;56967;43.538;-5.646;2023-04-24T08:05:38;100805.28;;;20.14
69704;BMP280;56967;43.538;-5.646;2023-04-24T08:08:03;100813.31;;;19.55
69704;BMP280;56967;43.538;-5.646;2023-04-24T08:10:29;100789.25;;;19.65
69704;BMP280;56967;43.538;-5.646;2023-04-24T08:12:54;100755.06;;;19.08
69704;BMP280;56967;43.538;-5.646;2023-04-24T08:15:20;100765.91;;;19.37
69704;BMP280;56967;43.538;-5.646;2023-04-24T08:17:46;100784.34;;;19.28
69704;BMP280;56967;43.538;-5.646;2023-04-24T08:20:12;100632.03;;;18.96
69704;BMP280;56967;43.538;-5.646;2023-04-24T08:22:41;100669.16;;;19.36
69704;BMP280;56967;43.538;-5.646;2023-04-24T08:25:08;100771.94;;;19.63
69704;BMP280;56967;43.538;-5.646;2023-04-24T08:27:33;100765.41;;;19.30
69704;BMP280;56967;43.538;-5.646;2023-04-24T08:29:59;100699.75;;;18.70
69704;BMP280;56967;43.538;-5.646;2023-04-24T08:32:26;100796.72;;;19.68
69704;BMP280;56967;43.538;-5.646;2023-04-24T08:34:55;100888.03;;;20.04
69704;BMP280;56967;43.538;-5.646;2023-04-24T08:37:22;100948.09;;;20.65
69704;BMP280;56967;43.538;-5.646;2023-04-24T08:39:51;100970.19;;;20.22
69704;BMP280;56967;43.538;-5.646;2023-04-24T08:42:18;100964.72;;;19.88
69704;BMP280;56967;43.538;-5.646;2023-04-24T08:44:45;100936.22;;;19.59
69704;BMP280;56967;43.538;-5.646;2023-04-24T08:47:11;100846.94;;;19.51
69704;BMP280;56967;43.538;-5.646;2023-04-24T08:49:38;100846.47;;;19.19
69704;BMP280;56967;43.538;-5.646;2023-04-24T08:52:07;100850.19;;;19.28
69704;BMP280;56967;43.538;-5.646;2023-04-24T08:54:35;100841.44;;;18.97
69704;BMP280;56967;43.538;-5.646;2023-04-24T08:57:02;100860.50;;;19.65
69704;BMP280;56967;43.538;-5.646;2023-04-24T08:59:29;100914.09;;;19.63
69704;BMP280;56967;43.538;-5.646;2023-04-24T09:01:56;100944.41;;;19.97
69704;BMP280;56967;43.538;-5.646;2023-04-24T09:04:22;100939.56;;;20.04
69704;BMP280;56967;43.538;-5.646;2023-04-24T09:06:51;100978.31;;;19.97
69704;BMP280;56967;43.538;-5.646;2023-04-24T09:09:17;100884.28;;;19.31
69704;BMP280;56967;43.538;-5.646;2023-04-24T09:11:43;100921.28;;;19.73
69704;BMP280;56967;43.538;-5.646;2023-04-24T09:14:10;100967.13;;;19.85
69704;BMP280;56967;43.538;-5.646;2023-04-24T09:16:36;100935.06;;;19.95
69704;BMP280;56967;43.538;-5.646;2023-04-24T09:19:01;100945.22;;;19.93
69704;BMP280;56967;43.538;-5.646;2023-04-24T09:21:34;100938.09;;;19.58
69704;BMP280;56967;43.538;-5.646;2023-04-24T09:24:05;100943.09;;;19.80
69704;BMP280;56967;43.538;-5.646;2023-04-24T09:26:35;100932.50;;;19.39
69704;BMP280;56967;43.538;-5.646;2023-04-24T09:29:01;100828.88;;;19.03
69704;BMP280;56967;43.538;-5.646;2023-04-24T09:31:28;100923.13;;;19.72
69704;BMP280;56967;43.538;-5.646;2023-04-24T09:36:30;100833.63;;;19.46
69704;BMP280;56967;43.538;-5.646;2023-04-24T09:39:02;100936.91;;;19.99
69704;BMP280;56967;43.538;-5.646;2023-04-24T09:41:28;100984.31;;;20.33
69704;BMP280;56967;43.538;-5.646;2023-04-24T09:43:55;101015.94;;;20.64
69704;BMP280;56967;43.538;-5.646;2023-04-24T09:46:28;101067.75;;;20.63
69704;BMP280;56967;43.538;-5.646;2023-04-24T09:48:54;101056.19;;;20.14
69704;BMP280;56967;43.538;-5.646;2023-04-24T09:51:33;101067.09;;;20.33
69704;BMP280;56967;43.538;-5.646;2023-04-24T09:53:59;101088.06;;;20.59
69704;BMP280;56967;43.538;-5.646;2023-04-24T09:56:25;101053.47;;;20.29
69704;BMP280;56967;43.538;-5.646;2023-04-24T09:58:51;101067.44;;;20.80
69704;BMP280;56967;43.538;-5.646;2023-04-24T10:01:30;101121.69;;;21.92
69704;BMP280;56967;43.538;-5.646;2023-04-24T10:03:55;101194.06;;;22.15
69704;BMP280;56967;43.538;-5.646;2023-04-24T10:06:21;101203.44;;;22.13
69704;BMP280;56967;43.538;-5.646;2023-04-24T10:08:48;101134.53;;;20.78
69704;BMP280;56967;43.538;-5.646;2023-04-24T10:11:16;101141.38;;;20.94
69704;BMP280;56967;43.538;-5.646;2023-04-24T10:13:42;101158.59;;;21.95
69704;BMP280;56967;43.538;-5.646;2023-04-24T10:16:08;101185.22;;;21.81
69704;BMP280;56967;43.538;-5.646;2023-04-24T10:18:35;101192.69;;;21.89
69704;BMP280;56967;43.538;-5.646;2023-04-24T10:21:01;101203.00;;;22.29
69704;BMP280;56967;43.538;-5.646;2023-04-24T10:23:28;101219.72;;;22.45
69704;BMP280;56967;43.538;-5.646;2023-04-24T10:25:55;101241.66;;;22.76
69704;BMP280;56967;43.538;-5.646;2023-04-24T10:28:22;101257.16;;;22.79
69704;BMP280;56967;43.538;-5.646;2023-04-24T10:30:49;101314.38;;;23.59
69704;BMP280;56967;43.538;-5.646;2023-04-24T10:33:15;101356.19;;;24.02
69704;BMP280;56967;43.538;-5.646;2023-04-24T10:35:45;101362.00;;;23.90
69704;BMP280;56967;43.538;-5.646;2023-04-24T10:38:16;101364.59;;;24.46
69704;BMP280;56967;43.538;-5.646;2023-04-24T10:40:43;101385.88;;;24.29
69704;BMP280;56967;43.538;-5.646;2023-04-24T10:43:09;101374.09;;;24.57
69704;BMP280;56967;43.538;-5.646;2023-04-24T10:45:37;101398.09;;;24.21
69704;BMP280;56967;43.538;-5.646;2023-04-24T10:48:05;101373.56;;;22.78
69704;BMP280;56967;43.538;-5.646;2023-04-24T10:50:53;101304.09;;;22.52
69704;BMP280;56967;43.538;-5.646;2023-04-24T10:53:23;101332.16;;;22.89
69704;BMP280;56967;43.538;-5.646;2023-04-24T10:55:51;101295.44;;;21.98
69704;BMP280;56967;43.538;-5.646;2023-04-24T10:58:21;101305.00;;;22.04
69704;BMP280;56967;43.538;-5.646;2023-04-24T11:00:58;101313.38;;;23.12
69704;BMP280;56967;43.538;-5.646;2023-04-24T11:03:33;101347.34;;;22.98
69704;BMP280;56967;43.538;-5.646;2023-04-24T11:06:07;101326.59;;;23.27
69704;BMP280;56967;43.538;-5.646;2023-04-24T11:08:38;101336.97;;;23.76
69704;BMP280;56967;43.538;-5.646;2023-04-24T11:11:17;101332.09;;;22.70
69704;BMP280;56967;43.538;-5.646;2023-04-24T11:16:32;101345.88;;;22.82
69704;BMP280;56967;43.538;-5.646;2023-04-24T11:19:06;101337.19;;;22.90
69704;BMP280;56967;43.538;-5.646;2023-04-24T11:21:39;101338.59;;;22.88
69704;BMP280;56967;43.538;-5.646;2023-04-24T11:24:49;101329.53;;;22.84
69704;BMP280;56967;43.538;-5.646;2023-04-24T11:27:19;101349.00;;;23.18
69704;BMP280;56967;43.538;-5.646;2023-04-24T11:29:46;101354.13;;;23.38
69704;BMP280;56967;43.538;-5.646;2023-04-24T11:32:26;101349.41;;;23.49
69704;BMP280;56967;43.538;-5.646;2023-04-24T11:34:56;101371.47;;;24.39
69704;BMP280;56967;43.538;-5.646;2023-04-24T11:37:34;101393.56;;;24.95
69704;BMP280;56967;43.538;-5.646;2023-04-24T11:40:00;101388.41;;;24.20
69704;BMP280;56967;43.538;-5.646;2023-04-24T11:42:26;101401.06;;;24.52
69704;BMP280;56967;43.538;-5.646;2023-04-24T11:44:52;101404.44;;;24.44
69704;BMP280;56967;43.538;-5.646;2023-04-24T11:47:19;101410.44;;;25.90
69704;BMP280;56967;43.538;-5.646;2023-04-24T11:49:44;101433.91;;;26.34
69704;BMP280;56967;43.538;-5.646;2023-04-24T11:52:10;101437.84;;;26.81
69704;BMP280;56967;43.538;-5.646;2023-04-24T11:54:36;101440.72;;;26.54
69704;BMP280;56967;43.538;-5.646;2023-04-24T11:57:06;101425.56;;;26.22
69704;BMP280;56967;43.538;-5.646;2023-04-24T11:59:36;101429.97;;;26.18
69704;BMP280;56967;43.538;-5.646;2023-04-24T12:02:03;101426.97;;;25.97
69704;BMP280;56967;43.538;-5.646;2023-04-24T12:04:38;101425.72;;;25.68
69704;BMP280;56967;43.538;-5.646;2023-04-24T12:07:05;101428.38;;;27.00
69704;BMP280;56967;43.538;-5.646;2023-04-24T12:09:44;101438.38;;;27.82
69704;BMP280;56967;43.538;-5.646;2023-04-24T12:12:12;101445.69;;;28.07
69704;BMP280;56967;43.538;-5.646;2023-04-24T12:14:54;101448.47;;;26.55
69704;BMP280;56967;43.538;-5.646;2023-04-24T12:17:31;101442.25;;;26.02
69704;BMP280;56967;43.538;-5.646;2023-04-24T12:20:02;101445.63;;;25.45
69704;BMP280;56967;43.538;-5.646;2023-04-24T12:22:49;101423.03;;;25.81
69704;BMP280;56967;43.538;-5.646;2023-04-24T12:25:16;101423.81;;;25.33
69704;BMP280;56967;43.538;-5.646;2023-04-24T12:27:43;101435.13;;;24.89
69704;BMP280;56967;43.538;-5.646;2023-04-24T12:30:12;101430.69;;;25.52
69704;BMP280;56967;43.538;-5.646;2023-04-24T12:32:43;101423.69;;;25.38
69704;BMP280;56967;43.538;-5.646;2023-04-24T12:35:09;101421.00;;;25.87
69704;BMP280;56967;43.538;-5.646;2023-04-24T12:37:34;101440.25;;;25.45
69704;BMP280;56967;43.538;-5.646;2023-04-24T12:40:05;101423.28;;;25.44
69704;BMP280;56967;43.538;-5.646;2023-04-24T12:42:32;101406.13;;;25.89
69704;BMP280;56967;43.538;-5.646;2023-04-24T12:44:59;101404.94;;;26.18
69704;BMP280;56967;43.538;-5.646;2023-04-24T12:47:27;101413.56;;;26.81
69704;BMP280;56967;43.538;-5.646;2023-04-24T12:49:53;101409.84;;;27.07
69704;BMP280;56967;43.538;-5.646;2023-04-24T12:52:23;101401.00;;;26.76
69704;BMP280;56967;43.538;-5.646;2023-04-24T12:54:52;101409.38;;;27.14
69704;BMP280;56967;43.538;-5.646;2023-04-24T12:57:18;101414.69;;;27.70
69704;BMP280;56967;43.538;-5.646;2023-04-24T12:59:44;101404.19;;;28.11
69704;BMP280;56967;43.538;-5.646;2023-04-24T13:02:10;101409.88;;;29.02
69704;BMP280;56967;43.538;-5.646;2023-04-24T13:04:36;101415.91;;;29.29
69704;BMP280;56967;43.538;-5.646;2023-04-24T13:07:01;101403.72;;;28.56
69704;BMP280;56967;43.538;-5.646;2023-04-24T13:09:27;101401.75;;;29.02
69704;BMP280;56967;43.538;-5.646;2023-04-24T13:11:53;101408.50;;;28.59
69704;BMP280;56967;43.538;-5.646;2023-04-24T13:14:19;101397.56;;;29.05
69704;BMP280;56967;43.538;-5.646;2023-04-24T13:16:45;101400.13;;;29.51
69704;BMP280;56967;43.538;-5.646;2023-04-24T13:19:10;101400.94;;;28.81
69704;BMP280;56967;43.538;-5.646;2023-04-24T13:21:36;101397.28;;;28.31
69704;BMP280;56967;43.538;-5.646;2023-04-24T13:24:02;101410.16;;;26.67
69704;BMP280;56967;43.538;-5.646;2023-04-24T13:26:30;101381.00;;;25.80
69704;BMP280;56967;43.538;-5.646;2023-04-24T13:28:55;101375.56;;;24.50
69704;BMP280;56967;43.538;-5.646;2023-04-24T13:31:21;101373.03;;;24.07
69704;BMP280;56967;43.538;-5.646;2023-04-24T13:33:47;101355.09;;;24.03
69704;BMP280;56967;43.538;-5.646;2023-04-24T13:36:13;101362.53;;;24.43
69704;BMP280;56967;43.538;-5.646;2023-04-24T13:38:38;101362.09;;;25.23
69704;BMP280;56967;43.538;-5.646;2023-04-24T13:41:04;101363.09;;;25.98
69704;BMP280;56967;43.538;-5.646;2023-04-24T13:43:29;101369.25;;;25.13
69704;BMP280;56967;43.538;-5.646;2023-04-24T13:45:55;101364.50;;;24.51
69704;BMP280;56967;43.538;-5.646;2023-04-24T13:48:21;101363.28;;;24.76